Time;durP1;ratioP1;P1;durP2;ratioP2;P2;SDS_P1;SDS_P2;PMS_P1;PMS_P2;Temp;Humidity;BMP_temperature;BMP_pressure;BME280_temperature;BME280_humidity;BME280_pressure;Samples;Min_cycle;Max_cycle;Signal;HPM_P1;HPM_P2
2022/07/13 00:01:14;;;;;;;1.48;1.38;;;24.20;69.40;;;;;;5050518;28;20041;-65
2022/07/13 00:03:39;;;;;;;1.90;1.80;;;24.20;69.40;;;;;;5050208;28;20048;-73
2022/07/13 00:06:05;;;;;;;1.35;1.25;;;24.20;69.50;;;;;;5047888;28;20103;-72
2022/07/13 00:08:31;;;;;;;1.80;1.70;;;24.20;69.50;;;;;;5049865;28;20490;-65
2022/07/13 00:10:57;;;;;;;1.13;1.02;;;24.20;69.60;;;;;;5050874;28;20583;-73
2022/07/13 00:13:22;;;;;;;3.63;1.73;;;24.10;69.70;;;;;;5049633;28;20021;-65
2022/07/13 00:15:48;;;;;;;1.50;1.40;;;24.10;69.90;;;;;;5044163;28;20034;-65
2022/07/13 00:18:14;;;;;;;1.73;1.63;;;24.00;70.10;;;;;;5049659;28;20463;-73
2022/07/13 00:20:40;;;;;;;2.70;1.45;;;24.00;70.30;;;;;;5050050;28;20125;-73
2022/07/13 00:23:05;;;;;;;1.35;1.27;;;24.00;70.40;;;;;;5047329;28;20025;-73
2022/07/13 00:25:31;;;;;;;1.50;1.40;;;24.00;70.40;;;;;;5049646;28;20091;-65
2022/07/13 00:27:57;;;;;;;1.33;1.10;;;24.00;70.50;;;;;;5049119;28;20025;-65
2022/07/13 00:30:23;;;;;;;1.48;1.33;;;23.90;70.60;;;;;;5057218;28;20035;-65
2022/07/13 00:32:49;;;;;;;1.63;1.45;;;23.90;70.70;;;;;;5055711;28;20030;-65
2022/07/13 00:35:14;;;;;;;1.65;1.55;;;23.90;70.90;;;;;;5049595;28;20028;-65
2022/07/13 00:37:40;;;;;;;1.33;1.23;;;23.90;71.20;;;;;;5049587;28;20078;-65
2022/07/13 00:40:06;;;;;;;2.05;1.00;;;23.90;71.10;;;;;;5048638;28;20056;-66
2022/07/13 00:42:32;;;;;;;2.92;1.83;;;23.90;71.10;;;;;;5048230;28;20102;-74
2022/07/13 00:44:58;;;;;;;1.35;1.25;;;23.90;71.20;;;;;;5047524;28;20029;-65
2022/07/13 00:47:25;;;;;;;1.63;1.17;;;23.90;71.30;;;;;;5062997;28;20036;-65
2022/07/13 00:49:51;;;;;;;1.40;1.30;;;23.80;71.30;;;;;;5064823;28;20752;-73
2022/07/13 00:52:17;;;;;;;2.25;1.33;;;23.80;71.40;;;;;;5048030;28;20136;-73
2022/07/13 00:54:43;;;;;;;2.25;1.25;;;23.80;71.50;;;;;;5049873;28;20060;-72
2022/07/13 00:57:12;;;;;;;1.02;1.00;;;23.70;71.40;;;;;;5047018;28;20037;-73
2022/07/13 00:59:39;;;;;;;1.85;1.58;;;23.80;71.50;;;;;;5048776;28;20045;-73
2022/07/13 01:02:05;;;;;;;1.40;1.30;;;23.70;71.40;;;;;;5047779;28;20107;-73
2022/07/13 01:04:31;;;;;;;1.58;1.48;;;23.70;71.50;;;;;;5049249;28;20117;-73
2022/07/13 01:06:58;;;;;;;1.40;1.30;;;23.70;71.80;;;;;;5049086;28;20507;-73
2022/07/13 01:09:25;;;;;;;0.98;0.98;;;23.60;71.80;;;;;;5048360;28;20039;-73
2022/07/13 01:11:51;;;;;;;1.85;1.63;;;23.60;71.80;;;;;;5047554;28;20060;-73
2022/07/13 01:14:17;;;;;;;1.52;1.42;;;23.60;71.80;;;;;;5049268;28;20064;-73
2022/07/13 01:16:44;;;;;;;2.80;2.00;;;23.60;71.90;;;;;;5048897;28;20068;-72
2022/07/13 01:19:13;;;;;;;2.25;2.05;;;23.50;72.00;;;;;;5049085;28;20558;-72
2022/07/13 01:21:48;;;;;;;1.33;1.23;;;23.50;72.00;;;;;;5045217;28;20962;-73
2022/07/13 01:24:14;;;;;;;1.83;1.65;;;23.50;72.00;;;;;;5046818;28;20036;-73
2022/07/13 01:26:40;;;;;;;1.52;1.42;;;23.50;72.10;;;;;;5026039;28;20037;-72
2022/07/13 01:29:06;;;;;;;1.60;1.50;;;23.50;72.00;;;;;;5042361;28;20392;-72
2022/07/13 01:31:38;;;;;;;1.48;1.38;;;23.50;72.10;;;;;;5047817;28;20033;-73
2022/07/13 01:34:05;;;;;;;1.80;1.67;;;23.50;72.20;;;;;;5048782;28;20025;-73
2022/07/13 01:36:31;;;;;;;3.33;1.20;;;23.40;72.30;;;;;;5045285;28;20025;-66
2022/07/13 01:38:58;;;;;;;1.70;1.60;;;23.40;72.40;;;;;;5038238;28;20119;-73
2022/07/13 01:41:25;;;;;;;1.67;1.48;;;23.40;72.50;;;;;;5049769;28;20064;-66
2022/07/13 01:43:51;;;;;;;1.67;1.55;;;23.40;72.50;;;;;;5064358;28;20068;-72
2022/07/13 01:46:17;;;;;;;1.83;1.60;;;23.40;72.50;;;;;;5045926;28;20820;-72
2022/07/13 01:48:43;;;;;;;2.15;1.25;;;23.40;72.60;;;;;;5037598;28;20025;-73
2022/07/13 01:51:09;;;;;;;1.17;1.08;;;23.40;72.60;;;;;;5049252;28;20464;-73
2022/07/13 01:53:34;;;;;;;1.88;1.75;;;23.30;72.60;;;;;;5047823;28;20044;-73
2022/07/13 01:56:00;;;;;;;2.10;1.70;;;23.30;72.70;;;;;;5048801;28;20029;-73
2022/07/13 01:58:28;;;;;;;1.77;1.67;;;23.30;72.60;;;;;;5046483;28;20033;-72
2022/07/13 02:00:55;;;;;;;1.30;1.20;;;23.40;72.80;;;;;;5049263;28;20460;-72
2022/07/13 02:03:20;;;;;;;1.98;1.20;;;23.30;72.70;;;;;;5048394;28;20029;-65
2022/07/13 02:05:46;;;;;;;1.40;1.30;;;23.30;72.70;;;;;;5050551;28;20082;-66
2022/07/13 02:08:12;;;;;;;1.42;1.33;;;23.30;72.60;;;;;;5046554;28;20039;-72
2022/07/13 02:10:38;;;;;;;1.50;1.40;;;23.30;72.70;;;;;;5047380;28;20129;-72
2022/07/13 02:13:11;;;;;;;2.45;1.60;;;23.30;72.70;;;;;;5047906;28;20079;-73
2022/07/13 02:15:37;;;;;;;1.38;1.27;;;23.30;72.80;;;;;;5049207;28;20463;-73
2022/07/13 02:18:03;;;;;;;1.80;1.45;;;23.30;72.90;;;;;;5063280;28;20124;-73
2022/07/13 02:20:29;;;;;;;2.60;1.40;;;23.30;72.90;;;;;;5062904;28;20091;-65
2022/07/13 02:22:54;;;;;;;1.27;1.17;;;23.30;72.90;;;;;;5051525;28;20037;-66
2022/07/13 02:25:20;;;;;;;1.55;1.45;;;23.30;72.90;;;;;;5051764;28;20527;-72
2022/07/13 02:27:46;;;;;;;1.40;1.30;;;23.30;72.90;;;;;;5051813;28;20075;-72
2022/07/13 02:30:13;;;;;;;1.25;1.13;;;23.30;73.00;;;;;;5050819;28;20028;-72
2022/07/13 02:32:40;;;;;;;1.42;1.13;;;23.30;73.00;;;;;;5047609;28;20036;-73
2022/07/13 02:35:06;;;;;;;0.95;0.95;;;23.20;73.00;;;;;;5050680;28;20346;-73
2022/07/13 02:37:32;;;;;;;5.35;1.27;;;23.20;73.00;;;;;;5050469;28;20514;-72
2022/07/13 02:39:58;;;;;;;2.22;1.35;;;23.20;73.00;;;;;;5067424;28;20107;-66
2022/07/13 02:42:24;;;;;;;1.38;1.27;;;23.20;73.00;;;;;;5068985;28;20033;-72
2022/07/13 02:44:53;;;;;;;1.63;1.27;;;23.20;73.00;;;;;;5052544;28;20025;-65
2022/07/13 02:47:19;;;;;;;1.20;1.20;;;23.20;73.00;;;;;;5066800;28;20351;-65
2022/07/13 02:49:45;;;;;;;1.52;1.42;;;23.20;73.10;;;;;;5067777;28;20041;-65
2022/07/13 02:52:11;;;;;;;1.65;1.13;;;23.10;73.10;;;;;;5052434;28;20464;-65
2022/07/13 02:54:37;;;;;;;1.42;1.30;;;23.10;73.20;;;;;;5070684;28;20044;-65
2022/07/13 02:57:05;;;;;;;1.42;1.33;;;23.10;73.20;;;;;;5053705;28;20098;-65
2022/07/13 02:59:35;;;;;;;1.35;1.20;;;23.00;73.20;;;;;;5070898;28;20071;-66
2022/07/13 03:02:01;;;;;;;1.30;1.13;;;23.00;73.30;;;;;;5071220;28;20060;-65
2022/07/13 03:04:27;;;;;;;1.65;1.17;;;23.00;73.40;;;;;;5070548;28;20485;-65
2022/07/13 03:06:52;;;;;;;1.55;1.20;;;23.00;73.40;;;;;;5068639;28;20463;-73
2022/07/13 03:09:18;;;;;;;1.13;1.02;;;23.00;73.30;;;;;;5069633;28;20475;-72
2022/07/13 03:11:44;;;;;;;2.45;1.60;;;23.00;73.30;;;;;;5069028;28;20455;-72
2022/07/13 03:14:09;;;;;;;1.00;1.00;;;23.00;73.40;;;;;;5051524;28;20070;-73
2022/07/13 03:16:35;;;;;;;1.30;1.20;;;23.00;73.30;;;;;;5051159;28;20029;-72
2022/07/13 03:19:01;;;;;;;1.83;1.38;;;23.00;73.40;;;;;;5050603;28;20040;-72
2022/07/13 03:21:30;;;;;;;1.30;1.20;;;23.00;73.30;;;;;;5050966;28;20848;-72
2022/07/13 03:23:58;;;;;;;0.93;0.93;;;23.00;73.30;;;;;;5042677;28;20033;-73
2022/07/13 03:26:24;;;;;;;1.20;1.10;;;23.00;73.20;;;;;;5067044;28;20036;-72
2022/07/13 03:28:50;;;;;;;1.20;1.10;;;22.90;73.10;;;;;;5064648;28;20020;-72
2022/07/13 03:31:16;;;;;;;1.17;1.08;;;22.90;73.20;;;;;;5065184;28;20033;-73
2022/07/13 03:33:43;;;;;;;1.20;1.08;;;22.90;73.20;;;;;;5061723;28;20021;-72
2022/07/13 03:36:08;;;;;;;0.88;0.82;;;22.90;73.10;;;;;;5050710;28;20455;-72
2022/07/13 03:38:35;;;;;;;1.00;0.88;;;22.90;73.00;;;;;;5041226;28;20076;-72
2022/07/13 03:41:01;;;;;;;1.45;1.35;;;22.90;72.90;;;;;;5055465;28;20033;-73
2022/07/13 03:43:27;;;;;;;1.23;0.90;;;22.90;72.90;;;;;;5036840;28;20032;-72
2022/07/13 03:45:52;;;;;;;1.48;1.10;;;22.90;72.90;;;;;;5054288;28;20443;-65
2022/07/13 03:48:18;;;;;;;1.42;1.30;;;22.90;72.90;;;;;;5051181;28;20116;-72
2022/07/13 03:50:45;;;;;;;1.30;1.00;;;22.90;72.80;;;;;;5043034;28;20029;-72
2022/07/13 03:53:14;;;;;;;1.55;1.33;;;22.90;72.90;;;;;;5035182;28;20024;-72
2022/07/13 03:55:43;;;;;;;1.35;1.17;;;22.90;72.90;;;;;;5034089;28;20103;-72
2022/07/13 03:58:10;;;;;;;0.70;0.70;;;22.90;72.90;;;;;;5043618;28;20036;-72
2022/07/13 04:00:37;;;;;;;1.15;0.98;;;22.90;72.90;;;;;;5031068;28;20142;-66
2022/07/13 04:03:02;;;;;;;1.13;0.95;;;22.90;73.00;;;;;;5039527;28;20034;-72
2022/07/13 04:05:28;;;;;;;1.23;1.15;;;22.90;73.00;;;;;;5037138;28;20430;-72
2022/07/13 04:07:54;;;;;;;1.10;1.05;;;22.90;73.10;;;;;;5035497;28;20231;-72
2022/07/13 04:10:21;;;;;;;0.80;0.80;;;22.90;73.10;;;;;;5030833;28;20420;-73
2022/07/13 04:12:48;;;;;;;1.80;1.00;;;22.90;73.10;;;;;;5034035;28;20025;-72
2022/07/13 04:15:14;;;;;;;0.80;0.80;;;23.00;73.10;;;;;;5040805;28;20033;-73
2022/07/13 04:17:41;;;;;;;0.80;0.80;;;23.00;73.00;;;;;;5045328;28;20037;-73
2022/07/13 04:20:07;;;;;;;1.00;0.88;;;23.00;72.90;;;;;;5040193;28;20484;-72
2022/07/13 04:22:33;;;;;;;0.90;0.85;;;23.00;73.00;;;;;;5039816;28;20090;-73
2022/07/13 04:24:59;;;;;;;1.30;0.85;;;23.00;72.90;;;;;;5031600;28;20415;-72
2022/07/13 04:27:25;;;;;;;1.42;1.27;;;23.00;73.00;;;;;;5049231;28;20060;-72
2022/07/13 04:29:51;;;;;;;1.88;1.00;;;23.10;73.00;;;;;;5030800;28;20018;-66
2022/07/13 04:32:16;;;;;;;1.27;1.10;;;23.10;73.00;;;;;;5041037;28;20037;-65
2022/07/13 04:34:42;;;;;;;1.00;1.00;;;23.10;73.10;;;;;;5039930;28;20036;-66
2022/07/13 04:37:08;;;;;;;0.95;0.80;;;23.10;73.10;;;;;;5031002;28;20112;-65
2022/07/13 04:39:33;;;;;;;1.15;0.90;;;23.10;73.10;;;;;;5035861;28;20392;-72
2022/07/13 04:41:59;;;;;;;0.75;0.75;;;23.10;73.10;;;;;;5049665;28;20045;-72
2022/07/13 04:44:28;;;;;;;1.40;1.30;;;23.10;73.10;;;;;;5034682;28;20041;-65
2022/07/13 04:46:54;;;;;;;0.82;0.82;;;23.20;73.10;;;;;;5030999;28;20063;-65
2022/07/13 04:49:20;;;;;;;1.38;1.23;;;23.20;73.10;;;;;;5030896;28;20043;-72
2022/07/13 04:51:48;;;;;;;1.23;1.13;;;23.20;73.00;;;;;;5039505;28;20480;-72
2022/07/13 04:54:16;;;;;;;1.27;0.80;;;23.20;73.00;;;;;;5033072;28;20057;-72
2022/07/13 04:56:42;;;;;;;0.77;0.77;;;23.20;72.90;;;;;;5047434;28;20047;-72
2022/07/13 04:59:07;;;;;;;1.00;0.70;;;23.30;72.90;;;;;;5055297;28;20187;-72
2022/07/13 05:01:33;;;;;;;1.08;1.00;;;23.30;72.80;;;;;;5035737;28;20133;-72
2022/07/13 05:03:59;;;;;;;0.95;0.95;;;23.30;72.60;;;;;;5030563;28;20036;-72
2022/07/13 05:06:25;;;;;;;0.90;0.90;;;23.40;72.60;;;;;;5038670;28;20044;-72
2022/07/13 05:08:51;;;;;;;1.65;1.52;;;23.40;72.50;;;;;;5045596;28;20108;-72
2022/07/13 05:11:17;;;;;;;2.10;1.50;;;23.50;72.40;;;;;;5034057;28;20419;-72
2022/07/13 05:13:42;;;;;;;1.23;0.80;;;23.60;72.30;;;;;;5029317;28;20034;-72
2022/07/13 05:16:08;;;;;;;1.30;1.00;;;23.60;72.00;;;;;;5047908;28;20124;-72
2022/07/13 05:18:34;;;;;;;0.80;0.80;;;23.60;72.00;;;;;;5030501;28;20038;-72
2022/07/13 05:21:00;;;;;;;0.73;0.73;;;23.60;71.90;;;;;;5042190;28;20029;-72
2022/07/13 05:23:26;;;;;;;1.23;1.13;;;23.60;71.50;;;;;;5035059;28;20044;-72
2022/07/13 05:25:52;;;;;;;1.45;1.35;;;23.70;71.20;;;;;;5043262;28;20799;-72
2022/07/13 05:28:18;;;;;;;1.30;0.98;;;23.70;71.10;;;;;;5024729;28;20037;-72
2022/07/13 05:30:43;;;;;;;2.88;1.10;;;23.70;71.10;;;;;;5043697;28;20035;-72
2022/07/13 05:33:09;;;;;;;0.88;0.88;;;23.80;71.20;;;;;;5039093;28;20036;-72
2022/07/13 05:35:35;;;;;;;0.82;0.82;;;23.80;71.10;;;;;;5032654;28;20040;-73
2022/07/13 05:38:00;;;;;;;0.80;0.80;;;23.90;70.90;;;;;;5030595;28;20033;-72
2022/07/13 05:40:26;;;;;;;1.38;0.88;;;23.90;70.70;;;;;;5034468;28;20464;-72
2022/07/13 05:42:52;;;;;;;1.70;1.50;;;23.90;70.60;;;;;;5042918;28;20459;-65
2022/07/13 05:45:19;;;;;;;1.10;1.08;;;23.90;70.30;;;;;;5032628;28;20037;-65
2022/07/13 05:47:48;;;;;;;1.67;1.33;;;24.00;70.20;;;;;;5035371;28;20041;-72
2022/07/13 05:50:15;;;;;;;0.93;0.73;;;24.00;70.00;;;;;;5047434;28;20421;-72
2022/07/13 05:52:41;;;;;;;1.30;1.20;;;24.00;69.70;;;;;;5043114;28;20040;-72
2022/07/13 05:55:08;;;;;;;3.22;2.30;;;24.00;69.60;;;;;;5042046;28;20812;-65
2022/07/13 05:57:34;;;;;;;1.00;0.88;;;24.10;68.10;;;;;;5034891;28;20037;-72
2022/07/13 06:00:00;;;;;;;1.13;1.10;;;24.10;68.00;;;;;;5035752;28;20196;-66
2022/07/13 06:02:26;;;;;;;2.47;1.73;;;24.10;68.00;;;;;;5045710;28;20025;-66
2022/07/13 06:04:52;;;;;;;2.08;1.58;;;24.10;67.50;;;;;;5056951;28;20515;-66
2022/07/13 06:07:17;;;;;;;1.65;1.45;;;24.20;67.80;;;;;;5039266;28;20041;-66
2022/07/13 06:09:43;;;;;;;1.45;1.30;;;24.20;67.00;;;;;;5063952;28;20044;-72
2022/07/13 06:12:09;;;;;;;1.48;1.35;;;24.30;67.00;;;;;;5061264;28;20040;-65
2022/07/13 06:14:34;;;;;;;2.30;1.95;;;24.30;66.20;;;;;;5060827;28;20040;-65
2022/07/13 06:17:00;;;;;;;1.80;1.15;;;24.30;65.30;;;;;;5052645;28;20053;-66
2022/07/13 06:19:26;;;;;;;2.78;1.60;;;24.40;65.50;;;;;;5052750;28;20044;-66
2022/07/13 06:21:51;;;;;;;2.28;1.60;;;24.40;65.40;;;;;;5052230;28;20033;-66
2022/07/13 06:24:17;;;;;;;3.47;1.70;;;24.50;65.10;;;;;;5049253;28;20053;-66
2022/07/13 06:26:43;;;;;;;2.53;1.45;;;24.50;64.60;;;;;;5057259;28;20045;-66
2022/07/13 06:29:08;;;;;;;2.03;1.67;;;24.50;64.30;;;;;;5054301;28;20129;-65
2022/07/13 06:31:34;;;;;;;2.20;1.95;;;24.50;64.00;;;;;;5052242;28;20108;-65
2022/07/13 06:34:00;;;;;;;2.20;1.80;;;24.50;64.00;;;;;;5061842;28;20103;-65
2022/07/13 06:36:25;;;;;;;3.13;2.40;;;24.60;63.90;;;;;;5059624;28;20041;-65
2022/07/13 06:38:51;;;;;;;3.03;1.85;;;24.70;63.40;;;;;;5044462;28;20037;-66
2022/07/13 06:41:17;;;;;;;2.10;1.73;;;24.70;63.20;;;;;;5058275;28;20032;-65
2022/07/13 06:43:43;;;;;;;1.50;1.38;;;24.70;63.30;;;;;;5048506;28;20400;-65
2022/07/13 06:46:09;;;;;;;2.83;1.73;;;24.70;63.20;;;;;;5044231;28;20052;-66
2022/07/13 06:48:38;;;;;;;3.40;2.17;;;24.80;63.00;;;;;;5047271;28;20033;-65
2022/07/13 06:51:04;;;;;;;2.15;1.98;;;24.90;62.60;;;;;;5069021;28;20087;-65
2022/07/13 06:53:30;;;;;;;1.83;1.73;;;24.90;62.60;;;;;;5055321;28;20036;-65
2022/07/13 06:55:56;;;;;;;2.13;1.88;;;25.00;62.50;;;;;;5050480;28;20369;-66
2022/07/13 06:58:22;;;;;;;1.75;1.60;;;25.10;62.30;;;;;;5050638;28;20032;-65
2022/07/13 07:00:48;;;;;;;2.70;2.13;;;25.10;62.30;;;;;;5067308;28;20041;-65
2022/07/13 07:03:14;;;;;;;2.25;1.85;;;25.20;62.20;;;;;;5051847;28;20025;-65
2022/07/13 07:05:40;;;;;;;4.00;2.28;;;25.20;61.80;;;;;;5049489;28;20029;-64
2022/07/13 07:08:05;;;;;;;4.00;2.42;;;25.30;61.90;;;;;;5023456;28;20044;-66
2022/07/13 07:10:31;;;;;;;24.13;2.53;;;25.30;61.80;;;;;;5033513;28;20048;-66
2022/07/13 07:12:57;;;;;;;2.95;2.10;;;25.30;61.30;;;;;;5045610;28;20033;-65
2022/07/13 07:15:23;;;;;;;2.85;1.77;;;25.30;61.10;;;;;;5051995;28;20033;-66
2022/07/13 07:17:49;;;;;;;3.63;2.15;;;25.30;61.40;;;;;;5063799;28;20035;-66
2022/07/13 07:20:19;;;;;;;2.65;1.83;;;25.40;61.50;;;;;;5061641;28;20029;-66
2022/07/13 07:22:46;;;;;;;3.17;2.63;;;25.50;61.20;;;;;;5061362;28;20036;-66
2022/07/13 07:25:12;;;;;;;3.25;1.67;;;25.60;61.20;;;;;;5055421;28;20028;-66
2022/07/13 07:27:40;;;;;;;1.75;1.58;;;25.70;60.90;;;;;;5056609;28;20040;-66
2022/07/13 07:30:06;;;;;;;4.15;1.73;;;25.80;60.80;;;;;;5062718;28;20028;-66
2022/07/13 07:32:32;;;;;;;2.28;1.95;;;26.10;60.70;;;;;;5059123;28;20033;-66
2022/07/13 07:34:58;;;;;;;2.22;2.03;;;26.20;59.80;;;;;;5066885;28;20487;-66
2022/07/13 07:37:24;;;;;;;1.67;1.48;;;26.40;59.60;;;;;;5063788;28;20420;-72
2022/07/13 07:39:49;;;;;;;1.40;1.30;;;26.50;59.60;;;;;;5052366;28;20040;-72
2022/07/13 07:42:16;;;;;;;1.70;1.55;;;26.40;59.00;;;;;;5056669;28;20044;-72
2022/07/13 07:44:42;;;;;;;3.33;1.77;;;26.40;59.30;;;;;;5052815;28;20516;-73
2022/07/13 07:47:08;;;;;;;1.55;1.42;;;26.50;59.20;;;;;;5046912;28;20056;-65
2022/07/13 07:49:35;;;;;;;2.53;1.88;;;26.70;58.70;;;;;;5046021;28;20086;-66
2022/07/13 07:52:00;;;;;;;1.33;1.23;;;26.70;58.80;;;;;;5060890;28;20025;-66
2022/07/13 07:54:26;;;;;;;1.67;1.30;;;26.80;58.50;;;;;;5050545;28;20368;-72
2022/07/13 07:56:52;;;;;;;1.40;1.30;;;26.80;58.80;;;;;;5046383;28;20056;-72
2022/07/13 07:59:17;;;;;;;1.27;1.17;;;26.80;58.90;;;;;;5041547;28;20033;-73
2022/07/13 08:01:43;;;;;;;1.05;1.02;;;26.90;59.00;;;;;;5061583;28;20488;-73
2022/07/13 08:04:09;;;;;;;1.70;0.93;;;26.90;58.70;;;;;;5042728;28;20093;-72
2022/07/13 08:06:35;;;;;;;3.38;0.98;;;26.90;58.00;;;;;;5051347;28;20041;-72
2022/07/13 08:09:01;;;;;;;1.30;1.10;;;26.90;58.10;;;;;;5041633;28;20094;-73
2022/07/13 08:11:27;;;;;;;4.43;1.50;;;26.90;57.80;;;;;;5043112;28;20053;-73
2022/07/13 08:13:53;;;;;;;1.52;1.42;;;27.00;58.00;;;;;;5047844;28;20059;-72
2022/07/13 08:16:19;;;;;;;1.58;1.48;;;27.00;58.10;;;;;;5058108;28;20036;-73
2022/07/13 08:18:45;;;;;;;1.45;1.35;;;27.10;58.00;;;;;;5045325;28;20415;-72
2022/07/13 08:21:12;;;;;;;1.45;1.35;;;27.10;58.00;;;;;;5039764;28;20039;-73
2022/07/13 08:23:56;;;;;;;4.18;1.50;;;27.20;58.10;;;;;;5043145;28;20037;-72
2022/07/13 08:26:27;;;;;;;1.33;1.23;;;27.20;58.00;;;;;;5047869;28;20754;-66
2022/07/13 08:28:54;;;;;;;2.25;1.50;;;27.30;57.90;;;;;;5039067;28;20033;-67
2022/07/13 08:31:22;;;;;;;1.75;1.33;;;27.30;57.70;;;;;;5048773;28;20033;-66
2022/07/13 08:39:18;;;;;;;2.20;1.52;;;27.50;57.80;;;;;;5038890;28;20043;-73
2022/07/13 08:41:45;;;;;;;1.50;1.40;;;27.80;57.50;;;;;;5049402;28;20400;-73
2022/07/13 08:44:10;;;;;;;1.42;1.33;;;28.00;57.20;;;;;;5046473;28;20104;-73
2022/07/13 08:46:36;;;;;;;2.45;1.42;;;28.10;56.90;;;;;;5046793;28;20124;-73
2022/07/13 08:49:03;;;;;;;1.88;1.73;;;28.20;56.50;;;;;;5065133;28;20108;-73
2022/07/13 08:51:32;;;;;;;2.25;1.45;;;28.10;56.70;;;;;;5050019;28;20029;-73
2022/07/13 08:53:59;;;;;;;1.30;1.20;;;28.10;56.40;;;;;;5047034;28;20029;-74
2022/07/13 08:56:25;;;;;;;3.42;1.20;;;28.20;56.70;;;;;;5049192;28;20075;-73
2022/07/13 08:58:52;;;;;;;2.63;1.60;;;28.30;55.70;;;;;;5046727;28;20025;-73
2022/07/13 09:01:19;;;;;;;2.30;1.25;;;28.40;55.50;;;;;;5034702;28;20045;-73
2022/07/13 09:03:45;;;;;;;1.85;1.40;;;28.50;55.70;;;;;;5032028;28;20477;-66
2022/07/13 09:06:49;;;;;;;1.45;1.35;;;28.60;55.20;;;;;;5035903;28;20099;-66
2022/07/13 09:09:33;;;;;;;2.65;1.38;;;28.70;54.70;;;;;;5038843;28;20060;-66
2022/07/13 09:12:12;;;;;;;1.88;1.70;;;28.80;54.00;;;;;;5051878;28;20049;-66
2022/07/13 09:14:38;;;;;;;4.22;1.20;;;28.90;52.60;;;;;;5033743;28;20033;-73
2022/07/13 09:17:04;;;;;;;1.30;1.20;;;28.90;52.90;;;;;;5040366;28;20120;-66
2022/07/13 09:19:36;;;;;;;2.55;1.30;;;29.00;53.10;;;;;;5038206;28;20100;-67
2022/07/13 09:22:12;;;;;;;1.85;1.20;;;29.00;52.80;;;;;;5039754;28;20037;-66
2022/07/13 09:24:48;;;;;;;3.45;1.75;;;29.10;52.80;;;;;;5038351;28;20045;-66
2022/07/13 09:27:15;;;;;;;1.55;1.23;;;29.20;52.30;;;;;;5029996;28;20480;-66
2022/07/13 09:29:42;;;;;;;1.40;1.30;;;29.20;51.80;;;;;;5038897;28;20036;-66
2022/07/13 09:32:11;;;;;;;1.10;1.00;;;29.30;50.80;;;;;;5036209;28;20033;-66
2022/07/13 09:34:44;;;;;;;1.88;1.52;;;29.30;51.50;;;;;;5045505;28;20022;-66
2022/07/13 09:37:15;;;;;;;0.98;0.98;;;29.50;51.70;;;;;;5059517;28;20041;-73
2022/07/13 09:40:07;;;;;;;0.80;0.73;;;29.70;51.70;;;;;;5030990;28;20500;-73
2022/07/13 09:42:40;;;;;;;1.30;1.20;;;29.90;51.10;;;;;;5036942;28;20033;-73
2022/07/13 09:47:56;;;;;;;1.25;1.02;;;30.00;49.70;;;;;;5046459;28;20051;-73
2022/07/13 09:50:23;;;;;;;1.33;1.00;;;30.10;48.90;;;;;;5039985;28;20056;-73
2022/07/13 09:52:51;;;;;;;1.55;0.90;;;30.10;48.20;;;;;;5041730;28;20064;-73
2022/07/13 09:55:20;;;;;;;0.95;0.90;;;30.10;48.60;;;;;;5038547;28;20025;-73
2022/07/13 09:57:56;;;;;;;1.25;1.15;;;30.30;48.80;;;;;;5052787;28;20385;-73
2022/07/13 10:00:23;;;;;;;2.75;1.75;;;30.40;49.60;;;;;;5046943;28;20060;-73
2022/07/13 10:02:50;;;;;;;1.65;1.23;;;30.40;49.70;;;;;;5043808;28;20028;-72
2022/07/13 10:05:17;;;;;;;1.52;1.10;;;30.40;50.00;;;;;;5048309;28;20059;-73
2022/07/13 10:07:45;;;;;;;1.27;0.90;;;30.50;50.40;;;;;;5045151;28;20139;-73
2022/07/13 10:10:16;;;;;;;1.92;1.30;;;30.50;50.60;;;;;;5054201;28;20037;-73
2022/07/13 10:12:43;;;;;;;1.17;1.10;;;30.60;49.20;;;;;;5050444;28;21086;-72
2022/07/13 10:15:11;;;;;;;1.60;1.30;;;30.60;49.20;;;;;;5044570;28;20456;-65
2022/07/13 10:17:38;;;;;;;2.45;1.60;;;30.50;49.00;;;;;;5046791;28;20464;-65
2022/07/13 10:20:05;;;;;;;0.90;0.90;;;30.50;49.40;;;;;;5047920;28;20087;-66
2022/07/13 10:22:42;;;;;;;2.20;1.20;;;30.60;49.70;;;;;;5048028;28;20017;-65
2022/07/13 10:25:08;;;;;;;1.58;1.35;;;30.60;49.90;;;;;;5047957;28;20487;-66
2022/07/13 10:27:38;;;;;;;4.03;1.42;;;30.70;49.20;;;;;;5055105;28;20036;-65
2022/07/13 10:30:10;;;;;;;3.22;1.23;;;30.80;49.70;;;;;;5046235;28;20467;-73
2022/07/13 10:32:41;;;;;;;2.30;1.05;;;31.10;48.80;;;;;;5044183;28;20375;-73
2022/07/13 10:35:16;;;;;;;0.98;0.98;;;31.20;48.50;;;;;;5047560;28;20087;-73
2022/07/13 10:37:58;;;;;;;2.15;1.23;;;31.20;48.60;;;;;;5061142;28;20400;-65
2022/07/13 10:40:31;;;;;;;1.27;1.10;;;31.30;47.80;;;;;;5044982;28;20028;-73
2022/07/13 10:42:57;;;;;;;1.55;1.08;;;31.20;48.00;;;;;;5063869;28;20036;-65
2022/07/13 10:45:41;;;;;;;1.00;0.90;;;31.30;48.20;;;;;;5040106;28;20056;-65
2022/07/13 10:48:21;;;;;;;0.88;0.88;;;31.40;48.20;;;;;;5041474;28;20035;-66
2022/07/13 10:50:48;;;;;;;1.40;1.20;;;31.50;48.50;;;;;;5043930;28;20323;-73
2022/07/13 10:53:18;;;;;;;1.10;1.00;;;31.70;48.00;;;;;;5039765;28;20667;-73
2022/07/13 10:55:48;;;;;;;2.40;1.25;;;31.80;47.60;;;;;;5050228;28;20025;-73
2022/07/13 10:58:32;;;;;;;1.70;1.17;;;31.90;47.50;;;;;;5044782;28;20037;-73
2022/07/13 11:01:22;;;;;;;1.23;1.05;;;31.90;47.50;;;;;;5052723;28;20776;-73
2022/07/13 11:03:48;;;;;;;2.72;0.90;;;32.00;47.50;;;;;;5041327;28;20033;-73
2022/07/13 11:06:20;;;;;;;5.95;1.00;;;32.10;47.60;;;;;;5048973;28;20032;-66
2022/07/13 11:09:06;;;;;;;2.90;1.23;;;32.20;46.90;;;;;;5046354;28;20099;-65
2022/07/13 11:11:32;;;;;;;1.75;1.40;;;32.10;46.70;;;;;;5043816;28;20052;-72
2022/07/13 11:13:58;;;;;;;1.20;1.10;;;32.00;47.00;;;;;;5043610;28;20040;-73
2022/07/13 11:16:46;;;;;;;0.95;0.95;;;31.80;47.20;;;;;;5040723;28;20457;-73
2022/07/13 11:19:12;;;;;;;1.27;1.17;;;31.60;47.70;;;;;;5046622;28;20079;-73
2022/07/13 11:22:03;;;;;;;1.80;1.23;;;31.60;47.90;;;;;;5048263;28;20474;-65
2022/07/13 11:27:22;;;;;;;2.25;1.00;;;31.80;47.80;;;;;;5047915;28;20052;-65
2022/07/13 11:29:57;;;;;;;0.73;0.73;;;31.90;47.70;;;;;;5047921;28;20752;-65
2022/07/13 11:32:25;;;;;;;0.75;0.75;;;32.00;47.80;;;;;;5047241;28;20293;-73
2022/07/13 11:34:52;;;;;;;0.77;0.70;;;32.10;47.70;;;;;;5039484;28;20033;-73
2022/07/13 11:37:25;;;;;;;1.33;1.23;;;32.40;46.70;;;;;;5048356;28;20554;-73
2022/07/13 11:39:50;;;;;;;0.90;0.90;;;32.50;45.10;;;;;;5044100;28;20043;-73
2022/07/13 11:42:21;;;;;;;0.60;0.60;;;32.40;44.00;;;;;;5046875;28;20037;-72
2022/07/13 11:44:50;;;;;;;1.35;1.00;;;32.30;44.50;;;;;;5048675;28;20039;-73
2022/07/13 11:47:15;;;;;;;1.00;1.00;;;32.30;43.40;;;;;;5040121;28;20033;-65
2022/07/13 11:49:49;;;;;;;1.63;0.82;;;32.20;43.10;;;;;;5043502;28;20125;-72
2022/07/13 11:52:21;;;;;;;0.60;0.60;;;32.10;41.70;;;;;;5057359;28;20305;-73
2022/07/13 11:55:13;;;;;;;0.70;0.70;;;32.00;42.00;;;;;;5047261;28;20033;-73
2022/07/13 11:57:39;;;;;;;0.70;0.70;;;32.00;41.40;;;;;;5033937;28;20386;-73
2022/07/13 12:00:06;;;;;;;0.80;0.70;;;32.10;41.20;;;;;;5041773;28;20048;-65
2022/07/13 12:02:33;;;;;;;0.90;0.90;;;32.10;40.40;;;;;;5037617;28;20390;-73
2022/07/13 12:04:59;;;;;;;0.75;0.70;;;31.90;39.80;;;;;;5044926;28;20026;-65
2022/07/13 12:07:28;;;;;;;0.63;0.63;;;31.80;39.70;;;;;;5047983;28;20045;-65
2022/07/13 12:10:01;;;;;;;0.60;0.60;;;31.70;39.60;;;;;;5037872;28;20473;-65
2022/07/13 12:12:27;;;;;;;;;;;31.60;40.00;;;;;;5065884;28;21870;-72
2022/07/13 12:14:54;;;;;;;0.70;0.70;;;31.50;39.20;;;;;;5048897;28;19958;-66
2022/07/13 12:17:21;;;;;;;0.95;0.75;;;31.40;39.70;;;;;;5043896;28;20091;-65
2022/07/13 12:19:48;;;;;;;0.77;0.77;;;31.50;39.90;;;;;;5045411;28;20056;-66
2022/07/13 12:22:14;;;;;;;1.02;0.95;;;31.70;39.50;;;;;;5046415;28;20047;-65
2022/07/13 12:24:44;;;;;;;0.70;0.70;;;32.00;39.80;;;;;;5048545;28;20037;-65
2022/07/13 12:27:29;;;;;;;0.70;0.70;;;32.20;39.50;;;;;;5065636;28;20499;-65
2022/07/13 12:30:09;;;;;;;1.23;1.13;;;32.50;39.40;;;;;;5048152;28;20033;-65
2022/07/13 12:32:54;;;;;;;0.70;0.70;;;32.60;38.90;;;;;;5044210;28;20036;-65
2022/07/13 12:35:20;;;;;;;0.65;0.60;;;32.80;38.60;;;;;;5058490;28;20345;-72
2022/07/13 12:37:52;;;;;;;1.20;0.80;;;33.00;38.70;;;;;;5040526;28;20079;-72
2022/07/13 12:40:36;;;;;;;0.70;0.70;;;33.20;38.90;;;;;;5044353;28;20143;-72
2022/07/13 12:43:03;;;;;;;0.95;0.95;;;33.30;39.10;;;;;;5045001;28;20090;-65
2022/07/13 12:45:32;;;;;;;0.70;0.70;;;33.50;39.40;;;;;;5042525;28;20056;-65
2022/07/13 12:47:58;;;;;;;0.88;0.88;;;33.80;39.30;;;;;;5048971;28;20101;-65
2022/07/13 12:50:30;;;;;;;0.65;0.65;;;33.90;39.40;;;;;;5040843;28;20413;-65
2022/07/13 12:53:02;;;;;;;0.93;0.93;;;34.00;39.50;;;;;;5045106;28;20029;-65
2022/07/13 12:55:28;;;;;;;1.00;0.88;;;34.20;38.80;;;;;;5049135;28;20029;-65
2022/07/13 12:57:54;;;;;;;1.15;0.73;;;34.00;38.80;;;;;;5063565;28;20037;-65
2022/07/13 13:00:25;;;;;;;0.57;0.57;;;33.80;39.80;;;;;;5044977;28;20025;-65
2022/07/13 13:02:51;;;;;;;3.20;0.90;;;33.90;38.90;;;;;;5037754;28;20036;-65